Time;durP1;ratioP1;P1;durP2;ratioP2;P2;SDS_P1;SDS_P2;PMS_P1;PMS_P2;Temp;Humidity;BMP_temperature;BMP_pressure;BME280_temperature;BME280_humidity;BME280_pressure;Samples;Min_cycle;Max_cycle;Signal;HPM_P1;HPM_P2
2023/09/21 00:00:59;;;;;;;3.13;1.70;;;;;;;;;;5065635;28;20036;-79
2023/09/21 00:03:30;;;;;;;4.93;1.90;;;;;;;;;;5064145;28;20106;-78
2023/09/21 00:05:57;;;;;;;5.07;1.85;;;;;;;;;;5061657;28;20052;-79
2023/09/21 00:08:26;;;;;;;5.30;1.95;;;;;;;;;;5073052;28;20048;-78
2023/09/21 00:10:54;;;;;;;4.43;1.90;;;;;;;;;;5066741;28;22115;-78
2023/09/21 00:13:26;;;;;;;2.30;1.50;;;;;;;;;;5068952;28;20052;-79
2023/09/21 00:15:56;;;;;;;3.75;1.70;;;;;;;;;;5071522;28;20057;-77
2023/09/21 00:18:26;;;;;;;2.55;1.63;;;;;;;;;;5068184;28;20059;-78
2023/09/21 00:20:55;;;;;;;7.05;1.90;;;;;;;;;;5068732;28;20109;-78
2023/09/21 00:23:25;;;;;;;3.15;1.60;;;;;;;;;;5073028;28;20053;-78
2023/09/21 00:25:57;;;;;;;9.80;2.13;;;;;;;;;;5072781;28;20052;-78
2023/09/21 00:28:27;;;;;;;4.28;1.77;;;;;;;;;;5072163;28;20048;-79
2023/09/21 00:31:01;;;;;;;5.65;1.80;;;;;;;;;;5070976;28;20053;-80
2023/09/21 00:33:29;;;;;;;4.05;1.80;;;;;;;;;;5068251;28;20045;-79
2023/09/21 00:36:09;;;;;;;2.33;1.67;;;;;;;;;;5061662;28;20060;-78
2023/09/21 00:38:35;;;;;;;5.85;1.85;;;;;;;;;;5074937;28;20072;-78
2023/09/21 00:41:02;;;;;;;4.57;1.88;;;;;;;;;;5080845;28;20060;-77
2023/09/21 00:43:30;;;;;;;6.15;1.85;;;;;;;;;;5075429;28;20052;-79
2023/09/21 00:45:59;;;;;;;5.55;2.10;;;;;;;;;;5072288;28;20049;-78
2023/09/21 00:48:33;;;;;;;7.00;1.95;;;;;;;;;;5064354;28;20052;-78
2023/09/21 00:51:01;;;;;;;4.03;1.60;;;;;;;;;;5068246;28;20165;-79
2023/09/21 00:53:29;;;;;;;4.03;1.50;;;;;;;;;;5067727;28;20052;-77
2023/09/21 00:56:37;;;;;;;6.40;1.92;;;;;;;;;;5071832;28;20053;-78
2023/09/21 01:00:16;;;;;;;5.30;1.60;;;;;;;;;;5061696;28;20481;-77
2023/09/21 01:03:55;;;;;;;5.88;2.10;;;;;;;;;;5060078;28;20044;-76
2023/09/21 01:07:36;;;;;;;5.63;1.70;;;;;;;;;;5064813;28;20053;-79
2023/09/21 01:11:16;;;;;;;3.33;1.60;;;;;;;;;;5064393;28;20052;-78
2023/09/21 01:14:56;;;;;;;3.35;1.48;;;;;;;;;;5062880;28;20057;-79
2023/09/21 01:18:40;;;;;;;2.97;1.60;;;;;;;;;;5061916;28;20056;-76
2023/09/21 01:22:17;;;;;;;2.67;1.63;;;;;;;;;;5069366;28;20044;-79
2023/09/21 01:26:00;;;;;;;2.17;1.45;;;;;;;;;;5068271;28;20393;-78
2023/09/21 01:29:39;;;;;;;4.07;1.60;;;;;;;;;;5065262;28;20044;-79
2023/09/21 01:33:23;;;;;;;5.22;1.70;;;;;;;;;;5063979;28;20051;-78
2023/09/21 01:37:00;;;;;;;5.18;1.67;;;;;;;;;;5070158;28;20049;-77
2023/09/21 01:40:40;;;;;;;5.45;1.77;;;;;;;;;;5065452;28;20131;-79
2023/09/21 01:44:21;;;;;;;4.60;2.13;;;;;;;;;;5072631;28;20126;-78
2023/09/21 01:48:01;;;;;;;6.90;1.77;;;;;;;;;;5065164;28;20095;-78
2023/09/21 01:51:41;;;;;;;4.18;1.80;;;;;;;;;;5071039;28;20048;-76
2023/09/21 01:55:21;;;;;;;5.45;1.83;;;;;;;;;;5064590;28;20506;-78
2023/09/21 01:59:03;;;;;;;7.28;1.80;;;;;;;;;;5065941;28;20083;-77
2023/09/21 02:02:42;;;;;;;4.32;1.60;;;;;;;;;;5064649;28;20446;-79
2023/09/21 02:06:23;;;;;;;4.32;1.98;;;;;;;;;;5056106;28;20109;-79
2023/09/21 02:10:03;;;;;;;4.00;1.80;;;;;;;;;;5072816;28;20131;-77
2023/09/21 02:13:43;;;;;;;3.90;1.90;;;;;;;;;;5062228;28;20123;-80
2023/09/21 02:17:24;;;;;;;4.47;1.83;;;;;;;;;;5063334;28;20037;-80
2023/09/21 02:21:08;;;;;;;4.05;1.67;;;;;;;;;;5066873;28;20049;-79
2023/09/21 02:24:46;;;;;;;7.68;2.15;;;;;;;;;;5065768;28;20037;-80
2023/09/21 02:28:25;;;;;;;7.25;2.13;;;;;;;;;;5060066;28;20065;-78
2023/09/21 02:32:05;;;;;;;6.50;1.90;;;;;;;;;;5065917;28;20079;-80
2023/09/21 02:35:47;;;;;;;4.43;1.80;;;;;;;;;;5066480;28;20535;-79
2023/09/21 02:39:26;;;;;;;3.80;2.00;;;;;;;;;;5066182;28;20071;-78
2023/09/21 02:43:09;;;;;;;5.22;1.88;;;;;;;;;;5060190;28;20039;-78
2023/09/21 02:46:50;;;;;;;4.10;1.80;;;;;;;;;;5075185;28;20044;-77
2023/09/21 02:50:30;;;;;;;6.38;1.90;;;;;;;;;;5071174;28;20407;-77
2023/09/21 02:54:11;;;;;;;4.72;2.08;;;;;;;;;;5066161;28;20040;-78
2023/09/21 02:57:50;;;;;;;2.75;1.70;;;;;;;;;;5065524;28;20052;-79
2023/09/21 03:01:31;;;;;;;4.68;1.90;;;;;;;;;;5069204;28;20044;-78
2023/09/21 03:05:13;;;;;;;3.13;1.80;;;;;;;;;;5067896;28;20098;-78
2023/09/21 03:08:51;;;;;;;8.60;2.25;;;;;;;;;;5063208;28;20048;-78
2023/09/21 03:12:32;;;;;;;8.32;2.17;;;;;;;;;;5066294;28;20409;-76
2023/09/21 03:16:13;;;;;;;7.40;1.95;;;;;;;;;;5057657;28;20048;-77
2023/09/21 03:19:54;;;;;;;3.63;1.88;;;;;;;;;;5073523;28;20040;-78
2023/09/21 03:23:33;;;;;;;6.45;2.42;;;;;;;;;;5060229;28;20185;-77
2023/09/21 03:27:14;;;;;;;4.95;2.20;;;;;;;;;;5069414;28;20075;-79
2023/09/21 03:30:56;;;;;;;9.00;2.22;;;;;;;;;;5068095;28;20048;-80
2023/09/21 03:34:34;;;;;;;7.07;2.47;;;;;;;;;;5066972;28;20070;-79
2023/09/21 03:38:18;;;;;;;5.75;2.00;;;;;;;;;;5060764;28;20040;-79
2023/09/21 03:41:57;;;;;;;6.88;2.85;;;;;;;;;;5059960;28;20037;-78
2023/09/21 03:45:35;;;;;;;4.50;2.08;;;;;;;;;;5064838;28;20044;-79
2023/09/21 03:49:15;;;;;;;9.23;2.25;;;;;;;;;;5063976;28;20088;-77
2023/09/21 03:52:55;;;;;;;5.90;2.10;;;;;;;;;;5063508;28;20053;-81
2023/09/21 03:56:36;;;;;;;5.53;2.35;;;;;;;;;;5065363;28;20045;-78
2023/09/21 04:03:45;;;;;;;4.97;2.30;;;;;;;;;;5062387;28;20426;-77
2023/09/21 04:06:56;;;;;;;7.75;2.00;;;;;;;;;;5064149;28;20131;-77
2023/09/21 04:10:02;;;;;;;6.75;2.30;;;;;;;;;;5061410;28;20131;-79
2023/09/21 04:13:03;;;;;;;5.68;2.47;;;;;;;;;;5064494;28;20184;-78
2023/09/21 04:16:09;;;;;;;8.10;2.75;;;;;;;;;;5064792;28;20044;-77
2023/09/21 04:19:50;;;;;;;5.88;2.13;;;;;;;;;;5065364;28;20037;-78
2023/09/21 04:23:30;;;;;;;19.38;2.65;;;;;;;;;;5069560;28;20040;-80
2023/09/21 04:27:11;;;;;;;5.18;2.55;;;;;;;;;;5069299;28;20104;-80
2023/09/21 04:30:51;;;;;;;8.20;2.20;;;;;;;;;;5081752;28;20075;-82
2023/09/21 04:34:31;;;;;;;5.88;2.28;;;;;;;;;;5083111;28;20036;-78
2023/09/21 04:38:11;;;;;;;6.40;2.85;;;;;;;;;;5073317;28;20056;-81
2023/09/21 04:41:52;;;;;;;9.25;2.22;;;;;;;;;;5071198;28;20408;-82
2023/09/21 04:45:33;;;;;;;13.90;2.65;;;;;;;;;;5072291;28;20049;-80
2023/09/21 04:49:12;;;;;;;7.45;2.30;;;;;;;;;;5072472;28;20033;-79
2023/09/21 04:52:52;;;;;;;4.95;2.40;;;;;;;;;;5070788;28;20377;-80
2023/09/21 04:56:33;;;;;;;7.10;2.40;;;;;;;;;;5074883;28;20064;-80
2023/09/21 05:00:14;;;;;;;6.72;2.75;;;;;;;;;;5053705;28;20077;-67
2023/09/21 05:03:56;;;;;;;4.20;1.95;;;;;;;;;;5061396;28;20037;-67
2023/09/21 05:06:44;;;;;;;6.18;2.53;;;;;;;;;;5054469;28;20057;-67
2023/09/21 05:09:10;;;;;;;8.15;2.65;;;;;;;;;;5064452;28;20055;-67
2023/09/21 05:11:38;;;;;;;6.90;2.22;;;;;;;;;;5059513;28;20049;-66
2023/09/21 05:14:10;;;;;;;4.90;2.42;;;;;;;;;;5054863;28;20492;-67
2023/09/21 05:16:37;;;;;;;5.80;2.30;;;;;;;;;;5052990;28;20055;-68
2023/09/21 05:19:05;;;;;;;5.78;2.42;;;;;;;;;;5052500;28;20048;-66
2023/09/21 05:21:31;;;;;;;7.47;2.22;;;;;;;;;;5057401;28;20052;-67
2023/09/21 05:23:56;;;;;;;6.63;2.58;;;;;;;;;;5057332;28;20044;-68
2023/09/21 05:26:23;;;;;;;6.38;2.40;;;;;;;;;;5065967;28;20053;-70
2023/09/21 05:28:50;;;;;;;7.60;2.45;;;;;;;;;;5049629;28;20057;-69
2023/09/21 05:31:16;;;;;;;8.77;2.50;;;;;;;;;;5058814;28;20485;-70
2023/09/21 05:34:22;;;;;;;7.97;2.28;;;;;;;;;;5058259;28;20045;-70
2023/09/21 05:37:22;;;;;;;8.38;2.67;;;;;;;;;;5051914;28;20067;-69
2023/09/21 05:39:48;;;;;;;6.78;2.60;;;;;;;;;;5065453;28;20504;-69
2023/09/21 05:42:15;;;;;;;7.57;2.67;;;;;;;;;;5058628;28;20045;-70
2023/09/21 05:44:43;;;;;;;7.38;2.70;;;;;;;;;;5058242;28;20567;-70
2023/09/21 05:47:10;;;;;;;5.72;2.33;;;;;;;;;;5060503;28;20135;-71
2023/09/21 05:49:37;;;;;;;6.70;2.15;;;;;;;;;;5062693;28;20048;-69
2023/09/21 05:52:44;;;;;;;7.00;2.28;;;;;;;;;;5057454;28;20127;-68
2023/09/21 05:56:27;;;;;;;9.55;2.67;;;;;;;;;;5051825;28;20126;-69
2023/09/21 06:00:08;;;;;;;5.32;2.20;;;;;;;;;;5054897;28;20398;-69
2023/09/21 06:03:49;;;;;;;8.10;2.60;;;;;;;;;;5062886;28;20040;-68
2023/09/21 06:07:29;;;;;;;4.97;2.28;;;;;;;;;;5064528;28;20094;-68
2023/09/21 06:11:09;;;;;;;7.32;2.63;;;;;;;;;;5062350;28;20562;-67
2023/09/21 06:14:50;;;;;;;4.88;2.33;;;;;;;;;;5076502;28;20063;-79
2023/09/21 06:18:30;;;;;;;7.53;2.30;;;;;;;;;;5095681;22;20064;-80
2023/09/21 06:22:14;;;;;;;13.48;2.40;;;;;;;;;;5062865;28;20029;-81
2023/09/21 06:25:54;;;;;;;5.72;2.63;;;;;;;;;;5066158;28;20069;-81
2023/09/21 06:29:35;;;;;;;4.93;2.30;;;;;;;;;;5060555;28;20033;-79
2023/09/21 06:33:18;;;;;;;5.95;2.13;;;;;;;;;;5053255;28;20044;-77
2023/09/21 06:36:57;;;;;;;5.03;2.20;;;;;;;;;;5059498;28;20060;-78
2023/09/21 06:40:37;;;;;;;4.75;1.98;;;;;;;;;;5039284;28;20049;-77
2023/09/21 06:44:18;;;;;;;5.88;2.20;;;;;;;;;;5046641;28;20320;-75
2023/09/21 06:47:58;;;;;;;7.97;2.65;;;;;;;;;;5041010;28;20049;-70
2023/09/21 06:51:39;;;;;;;6.40;2.40;;;;;;;;;;5055301;28;20059;-77
2023/09/21 06:55:19;;;;;;;7.10;2.15;;;;;;;;;;5050030;28;20038;-81
2023/09/21 06:59:00;;;;;;;12.43;2.22;;;;;;;;;;5045130;28;20119;-73
2023/09/21 07:02:44;;;;;;;5.30;2.17;;;;;;;;;;5050238;28;20507;-75
2023/09/21 07:06:22;;;;;;;7.53;2.60;;;;;;;;;;5048656;28;20558;-75
2023/09/21 07:10:02;;;;;;;9.88;2.30;;;;;;;;;;5045860;28;20056;-76
2023/09/21 07:13:44;;;;;;;8.73;3.60;;;;;;;;;;5047832;28;20048;-75
2023/09/21 07:17:23;;;;;;;8.35;3.65;;;;;;;;;;5040877;28;20073;-75
2023/09/21 07:21:05;;;;;;;7.57;3.28;;;;;;;;;;5037899;28;20049;-73
2023/09/21 07:24:47;;;;;;;8.95;2.65;;;;;;;;;;5043176;28;20053;-76
2023/09/21 07:28:22;;;;;;;8.40;2.33;;;;;;;;;;5035241;28;20076;-76
2023/09/21 07:30:52;;;;;;;8.48;2.35;;;;;;;;;;5035697;28;20049;-74
2023/09/21 07:33:58;;;;;;;3.90;2.30;;;;;;;;;;5042500;28;20045;-74
2023/09/21 07:36:24;;;;;;;5.18;2.60;;;;;;;;;;5038298;28;20057;-73
2023/09/21 07:39:29;;;;;;;7.97;2.95;;;;;;;;;;5043670;28;20048;-74
2023/09/21 07:43:10;;;;;;;5.03;2.00;;;;;;;;;;5043906;28;20049;-73
2023/09/21 07:46:53;;;;;;;6.28;2.40;;;;;;;;;;5040290;28;20052;-74
2023/09/21 07:50:36;;;;;;;9.18;2.30;;;;;;;;;;5039116;28;20124;-73
2023/09/21 07:54:16;;;;;;;6.97;2.05;;;;;;;;;;5033695;28;20567;-77
2023/09/21 07:57:55;;;;;;;5.22;2.17;;;;;;;;;;5046059;28;20045;-73
2023/09/21 08:01:36;;;;;;;5.65;2.10;;;;;;;;;;5043717;28;20150;-75
2023/09/21 08:05:16;;;;;;;5.28;2.10;;;;;;;;;;5032895;28;20515;-75
2023/09/21 08:08:58;;;;;;;6.43;2.05;;;;;;;;;;5045034;28;20048;-77
2023/09/21 08:12:41;;;;;;;6.35;2.83;;;;;;;;;;5041402;28;20052;-75
2023/09/21 08:16:19;;;;;;;4.68;2.05;;;;;;;;;;5044311;28;20147;-77
2023/09/21 08:20:03;;;;;;;7.55;2.70;;;;;;;;;;5038042;28;20604;-73
2023/09/21 08:23:42;;;;;;;4.75;1.90;;;;;;;;;;5039280;28;20060;-74
2023/09/21 08:27:22;;;;;;;6.75;1.95;;;;;;;;;;5046176;28;20037;-76
2023/09/21 08:31:00;;;;;;;5.28;1.80;;;;;;;;;;5036009;28;20615;-73
2023/09/21 08:34:44;;;;;;;4.25;2.00;;;;;;;;;;5040434;28;20127;-75
2023/09/21 08:38:21;;;;;;;6.47;2.17;;;;;;;;;;5033751;28;20448;-75
2023/09/21 08:42:03;;;;;;;9.02;2.00;;;;;;;;;;5038010;28;20424;-74
2023/09/21 08:45:46;;;;;;;7.78;1.83;;;;;;;;;;5039101;28;20060;-73
2023/09/21 08:49:25;;;;;;;6.60;2.08;;;;;;;;;;5032085;28;20060;-70
2023/09/21 08:53:05;;;;;;;5.80;1.90;;;;;;;;;;5036210;28;20045;-76
2023/09/21 08:56:46;;;;;;;3.95;1.60;;;;;;;;;;5039897;28;20120;-75
2023/09/21 09:00:27;;;;;;;6.40;1.70;;;;;;;;;;5028202;28;20048;-72
2023/09/21 09:04:07;;;;;;;2.78;1.70;;;;;;;;;;5039717;28;20423;-77
2023/09/21 09:07:47;;;;;;;3.95;1.83;;;;;;;;;;5046659;28;20049;-63
2023/09/21 09:11:27;;;;;;;4.35;1.77;;;;;;;;;;5037877;28;20053;-72
2023/09/21 09:15:08;;;;;;;9.95;2.33;;;;;;;;;;5042977;28;20056;-72
2023/09/21 09:18:48;;;;;;;6.63;1.88;;;;;;;;;;5043276;28;20481;-78
2023/09/21 09:22:33;;;;;;;5.50;2.08;;;;;;;;;;5049500;28;20079;-79
2023/09/21 09:26:15;;;;;;;6.00;1.85;;;;;;;;;;5047735;28;20045;-77
2023/09/21 09:29:57;;;;;;;8.82;2.47;;;;;;;;;;5050658;28;20075;-78
2023/09/21 09:33:36;;;;;;;6.50;1.90;;;;;;;;;;5057150;28;20416;-79
2023/09/21 09:37:17;;;;;;;5.47;1.83;;;;;;;;;;5037952;28;20056;-75
2023/09/21 09:40:57;;;;;;;7.65;1.70;;;;;;;;;;5039028;28;20059;-75
2023/09/21 09:44:42;;;;;;;3.42;1.65;;;;;;;;;;5034773;28;20041;-74
2023/09/21 09:48:25;;;;;;;13.77;2.10;;;;;;;;;;5045851;28;20049;-74
2023/09/21 09:52:05;;;;;;;3.78;1.90;;;;;;;;;;5034663;28;20040;-73
2023/09/21 09:55:42;;;;;;;3.60;1.60;;;;;;;;;;5046086;28;20281;-72
2023/09/21 09:59:23;;;;;;;5.93;2.08;;;;;;;;;;5043627;28;20124;-75
2023/09/21 10:03:03;;;;;;;11.23;1.95;;;;;;;;;;5038788;28;20132;-72
2023/09/21 10:06:45;;;;;;;2.75;1.50;;;;;;;;;;5040199;28;20044;-72
2023/09/21 10:10:27;;;;;;;6.18;1.63;;;;;;;;;;5044407;28;20047;-70
2023/09/21 10:14:12;;;;;;;6.10;1.75;;;;;;;;;;5038758;28;20427;-75
2023/09/21 10:17:53;;;;;;;3.63;1.55;;;;;;;;;;5042132;28;20068;-73
2023/09/21 10:21:43;;;;;;;4.70;1.92;;;;;;;;;;5038749;28;20045;-73
2023/09/21 10:25:22;;;;;;;4.38;1.92;;;;;;;;;;5044646;28;20052;-70
2023/09/21 10:28:53;;;;;;;6.03;1.95;;;;;;;;;;5037009;28;20634;-74
2023/09/21 10:32:32;;;;;;;5.85;2.05;;;;;;;;;;5041388;28;20060;-69
2023/09/21 10:36:25;;;;;;;5.93;1.88;;;;;;;;;;5041176;28;20049;-70
2023/09/21 10:40:08;;;;;;;6.35;2.20;;;;;;;;;;5041010;28;20053;-71
2023/09/21 10:43:36;;;;;;;5.93;2.20;;;;;;;;;;5041898;28;20045;-76
2023/09/21 10:47:17;;;;;;;5.53;1.70;;;;;;;;;;5038189;28;20505;-76
2023/09/21 10:50:57;;;;;;;5.70;2.10;;;;;;;;;;5047227;28;20156;-78
2023/09/21 10:54:40;;;;;;;10.50;2.05;;;;;;;;;;5049612;28;20044;-74
2023/09/21 10:58:21;;;;;;;6.25;1.70;;;;;;;;;;5049177;28;20048;-77
2023/09/21 11:02:02;;;;;;;5.20;1.88;;;;;;;;;;5046551;28;20447;-73
2023/09/21 11:05:42;;;;;;;8.07;1.88;;;;;;;;;;5044047;28;20049;-77
2023/09/21 11:09:23;;;;;;;9.95;1.90;;;;;;;;;;5042973;28;20072;-74
2023/09/21 11:13:03;;;;;;;12.82;2.13;;;;;;;;;;5050569;28;20041;-74
2023/09/21 11:16:43;;;;;;;6.45;2.00;;;;;;;;;;5048041;28;20101;-76
2023/09/21 11:20:24;;;;;;;7.25;2.10;;;;;;;;;;5042890;28;20057;-78
2023/09/21 11:24:05;;;;;;;7.25;1.77;;;;;;;;;;5046788;28;20060;-78
2023/09/21 11:27:48;;;;;;;11.85;2.10;;;;;;;;;;5040142;28;21353;-76
2023/09/21 11:31:28;;;;;;;9.30;1.85;;;;;;;;;;5046415;28;20037;-75
2023/09/21 11:35:09;;;;;;;6.68;1.80;;;;;;;;;;5039503;28;20171;-72
2023/09/21 11:38:50;;;;;;;11.80;1.92;;;;;;;;;;5041646;28;20049;-78
2023/09/21 11:42:30;;;;;;;12.30;1.92;;;;;;;;;;5039589;28;20056;-76
2023/09/21 11:46:11;;;;;;;9.35;2.08;;;;;;;;;;5036785;28;20050;-73
2023/09/21 11:49:54;;;;;;;14.10;2.00;;;;;;;;;;5046537;28;20052;-76
2023/09/21 11:53:34;;;;;;;8.52;2.35;;;;;;;;;;5045710;28;20048;-75
2023/09/21 11:57:16;;;;;;;12.15;2.00;;;;;;;;;;5051373;28;20497;-78
2023/09/21 12:01:19;;;;;;;4.25;1.90;;;;;;;;;;5042785;28;20228;-76
2023/09/21 12:04:39;;;;;;;3.53;1.80;;;;;;;;;;5043467;28;20071;-76
2023/09/21 12:08:21;;;;;;;5.05;1.63;;;;;;;;;;5047729;28;20075;-76
2023/09/21 12:12:00;;;;;;;4.05;2.03;;;;;;;;;;5045019;28;20053;-79
2023/09/21 12:15:40;;;;;;;3.55;1.55;;;;;;;;;;5043965;28;20049;-76
2023/09/21 12:19:23;;;;;;;7.72;1.85;;;;;;;;;;5045838;28;20354;-75
2023/09/21 12:23:05;;;;;;;5.85;1.85;;;;;;;;;;5048298;28;20242;-75
2023/09/21 12:26:42;;;;;;;6.25;1.92;;;;;;;;;;5041744;28;20180;-77
2023/09/21 12:30:23;;;;;;;9.07;1.75;;;;;;;;;;5045345;28;20572;-76
2023/09/21 12:34:03;;;;;;;2.83;1.63;;;;;;;;;;5046804;28;20077;-77
2023/09/21 12:37:45;;;;;;;4.35;1.80;;;;;;;;;;5031547;28;20476;-76
2023/09/21 12:41:26;;;;;;;4.13;1.83;;;;;;;;;;5040961;28;20074;-76
2023/09/21 12:45:05;;;;;;;8.15;1.77;;;;;;;;;;5045519;28;20048;-77
2023/09/21 12:48:46;;;;;;;5.95;1.70;;;;;;;;;;5043307;28;20056;-77
2023/09/21 12:52:26;;;;;;;5.15;1.80;;;;;;;;;;5037115;28;20037;-77
2023/09/21 12:56:07;;;;;;;5.03;1.75;;;;;;;;;;5034771;28;20040;-77
2023/09/21 12:59:49;;;;;;;2.65;1.73;;;;;;;;;;5040570;28;20049;-75
2023/09/21 13:03:30;;;;;;;4.63;1.90;;;;;;;;;;5051954;28;20056;-77
2023/09/21 13:07:15;;;;;;;3.67;1.70;;;;;;;;;;5055372;28;20041;-79
2023/09/21 13:10:55;;;;;;;2.63;1.60;;;;;;;;;;5053456;28;20044;-77
2023/09/21 13:14:36;;;;;;;8.48;2.10;;;;;;;;;;5040630;28;20074;-77
2023/09/21 13:18:19;;;;;;;7.22;1.90;;;;;;;;;;5050561;28;20065;-77
2023/09/21 13:21:58;;;;;;;8.15;2.20;;;;;;;;;;5050908;28;20049;-76
2023/09/21 13:25:40;;;;;;;6.88;1.92;;;;;;;;;;5037212;28;20413;-79
2023/09/21 13:29:18;;;;;;;3.78;1.75;;;;;;;;;;5039874;28;20711;-74
2023/09/21 13:32:59;;;;;;;2.72;1.52;;;;;;;;;;5038614;28;20087;-74
2023/09/21 13:36:39;;;;;;;5.32;1.85;;;;;;;;;;5041139;28;20558;-71
2023/09/21 13:40:20;;;;;;;6.70;1.77;;;;;;;;;;5041605;28;20046;-74
2023/09/21 13:44:01;;;;;;;2.40;1.50;;;;;;;;;;5034487;28;20045;-76
2023/09/21 13:47:41;;;;;;;5.75;1.50;;;;;;;;;;5035450;28;20052;-76
2023/09/21 13:51:22;;;;;;;3.65;1.60;;;;;;;;;;5040268;28;20045;-71
2023/09/21 13:55:03;;;;;;;3.17;1.73;;;;;;;;;;5037025;28;20098;-74
2023/09/21 13:58:44;;;;;;;3.08;1.60;;;;;;;;;;5039739;28;20045;-73
2023/09/21 14:02:27;;;;;;;7.60;2.00;;;;;;;;;;5042585;28;20400;-74
2023/09/21 14:06:05;;;;;;;5.43;1.83;;;;;;;;;;5041606;28;20049;-75
2023/09/21 14:09:45;;;;;;;3.72;1.63;;;;;;;;;;5046074;28;20049;-73
2023/09/21 14:13:26;;;;;;;6.32;1.80;;;;;;;;;;5038636;28;20508;-74
2023/09/21 14:17:06;;;;;;;5.22;1.85;;;;;;;;;;5045450;28;20983;-73
2023/09/21 14:20:47;;;;;;;6.95;1.90;;;;;;;;;;5038718;28;20118;-73
2023/09/21 14:24:27;;;;;;;8.68;1.88;;;;;;;;;;5045831;28;20187;-77
2023/09/21 14:27:57;;;;;;;3.47;1.70;;;;;;;;;;5038302;28;20090;-75
2023/09/21 14:31:38;;;;;;;11.45;1.95;;;;;;;;;;5037775;28;20037;-76
2023/09/21 14:35:18;;;;;;;5.38;1.90;;;;;;;;;;5043832;28;20047;-78
2023/09/21 14:38:58;;;;;;;4.72;1.92;;;;;;;;;;5047395;28;20052;-78
2023/09/21 14:42:38;;;;;;;8.15;1.98;;;;;;;;;;5044685;28;20059;-77
2023/09/21 14:46:19;;;;;;;4.60;1.73;;;;;;;;;;5040281;28;20512;-76
2023/09/21 14:48:45;;;;;;;5.13;1.83;;;;;;;;;;5045971;28;20269;-75
2023/09/21 14:51:10;;;;;;;2.58;1.50;;;;;;;;;;5043015;28;20056;-73
2023/09/21 14:53:39;;;;;;;7.93;1.83;;;;;;;;;;5041507;28;20049;-74
2023/09/21 14:56:07;;;;;;;4.72;1.40;;;;;;;;;;5047859;28;20056;-79
2023/09/21 14:58:34;;;;;;;5.78;1.92;;;;;;;;;;5053040;28;20051;-78
2023/09/21 15:01:02;;;;;;;7.18;2.00;;;;;;;;;;5082710;23;20051;-79
2023/09/21 15:03:34;;;;;;;5.75;1.88;;;;;;;;;;5050052;28;20102;-76
2023/09/21 15:06:00;;;;;;;5.93;1.60;;;;;;;;;;5048739;28;20041;-79
2023/09/21 15:08:28;;;;;;;4.10;1.70;;;;;;;;;;5049160;28;20529;-79
2023/09/21 15:10:54;;;;;;;6.75;1.70;;;;;;;;;;5044409;28;20049;-77
2023/09/21 15:13:22;;;;;;;5.25;1.92;;;;;;;;;;5047414;28;20044;-77
2023/09/21 15:15:49;;;;;;;4.90;1.63;;;;;;;;;;5052886;28;20041;-73
2023/09/21 15:18:17;;;;;;;4.47;1.85;;;;;;;;;;5047626;28;20049;-76
2023/09/21 15:20:43;;;;;;;6.10;1.50;;;;;;;;;;5046538;28;20068;-75
2023/09/21 15:23:09;;;;;;;9.10;1.95;;;;;;;;;;5049334;28;20140;-77
2023/09/21 15:25:35;;;;;;;3.80;1.50;;;;;;;;;;5059441;28;20103;-80
2023/09/21 15:28:02;;;;;;;4.30;1.60;;;;;;;;;;5055971;28;20035;-79
2023/09/21 15:30:29;;;;;;;3.78;1.73;;;;;;;;;;5060414;28;20086;-80
2023/09/21 15:32:56;;;;;;;4.25;1.75;;;;;;;;;;5055512;28;20044;-78
2023/09/21 15:35:23;;;;;;;3.15;1.63;;;;;;;;;;5049097;28;20056;-78
2023/09/21 15:37:54;;;;;;;10.30;1.95;;;;;;;;;;5050614;28;20045;-77
2023/09/21 15:41:00;;;;;;;4.97;1.48;;;;;;;;;;5044722;28;20095;-70
2023/09/21 15:44:01;;;;;;;5.97;1.70;;;;;;;;;;5035666;28;21579;-70
2023/09/21 15:46:28;;;;;;;10.10;1.90;;;;;;;;;;5048244;28;20056;-70
2023/09/21 15:48:57;;;;;;;5.88;1.83;;;;;;;;;;5047211;28;20136;-73
2023/09/21 15:51:23;;;;;;;6.47;1.90;;;;;;;;;;5028366;28;20482;-72
2023/09/21 15:53:49;;;;;;;4.72;1.67;;;;;;;;;;5047764;28;20048;-71
2023/09/21 15:56:15;;;;;;;4.45;1.63;;;;;;;;;;5026093;28;20049;-71
2023/09/21 15:58:42;;;;;;;5.10;1.75;;;;;;;;;;5046900;28;20047;-70
2023/09/21 16:01:08;;;;;;;10.15;1.90;;;;;;;;;;5034230;28;20107;-70
2023/09/21 16:03:34;;;;;;;6.07;1.70;;;;;;;;;;5045067;28;20052;-71
2023/09/21 16:06:40;;;;;;;3.97;1.58;;;;;;;;;;5049460;28;20547;-72
2023/09/21 16:10:21;;;;;;;8.35;1.75;;;;;;;;;;5041860;28;20057;-73
2023/09/21 16:14:01;;;;;;;4.03;1.42;;;;;;;;;;5049809;28;20423;-73
2023/09/21 16:17:42;;;;;;;6.82;2.03;;;;;;;;;;5047066;28;20063;-68
2023/09/21 16:21:23;;;;;;;3.50;1.40;;;;;;;;;;5046307;28;20039;-70
2023/09/21 16:25:03;;;;;;;7.50;1.55;;;;;;;;;;5048915;28;20110;-69
2023/09/21 16:28:44;;;;;;;4.93;1.83;;;;;;;;;;5045850;28;20459;-71
2023/09/21 16:32:24;;;;;;;6.85;2.10;;;;;;;;;;5044792;28;20134;-69
2023/09/21 16:35:26;;;;;;;4.40;1.88;;;;;;;;;;5044618;28;20037;-71
2023/09/21 16:37:54;;;;;;;5.28;2.13;;;;;;;;;;5043282;28;20123;-71
2023/09/21 16:41:00;;;;;;;4.72;2.00;;;;;;;;;;5039817;28;20449;-70
2023/09/21 16:44:40;;;;;;;4.57;1.70;;;;;;;;;;5046045;28;20033;-71
2023/09/21 16:48:22;;;;;;;3.20;1.38;;;;;;;;;;5044677;28;20060;-72
2023/09/21 16:52:03;;;;;;;3.70;1.50;;;;;;;;;;5039464;28;20041;-72
2023/09/21 16:55:42;;;;;;;3.97;1.40;;;;;;;;;;5041994;28;20329;-73
2023/09/21 16:59:23;;;;;;;10.07;1.70;;;;;;;;;;5043074;28;20087;-72
2023/09/21 17:03:03;;;;;;;4.63;1.50;;;;;;;;;;5043448;28;20045;-73
2023/09/21 17:06:45;;;;;;;7.47;1.80;;;;;;;;;;5041537;28;20154;-72
2023/09/21 17:09:46;;;;;;;4.97;1.65;;;;;;;;;;5036986;28;20393;-72
2023/09/21 17:12:14;;;;;;;4.68;1.73;;;;;;;;;;5041194;28;20055;-73
2023/09/21 17:14:40;;;;;;;3.35;1.40;;;;;;;;;;5042472;28;20052;-72
2023/09/21 17:17:07;;;;;;;6.22;1.50;;;;;;;;;;5046081;28;20057;-71
2023/09/21 17:19:33;;;;;;;6.50;1.52;;;;;;;;;;5043377;28;20110;-72
2023/09/21 17:21:59;;;;;;;7.93;1.75;;;;;;;;;;5036514;28;20049;-71
2023/09/21 17:24:25;;;;;;;6.85;1.35;;;;;;;;;;5048365;28;20557;-69
2023/09/21 17:26:53;;;;;;;2.88;1.40;;;;;;;;;;5040111;28;20052;-69
2023/09/21 17:29:20;;;;;;;7.40;1.30;;;;;;;;;;5042704;28;20044;-69
2023/09/21 17:32:28;;;;;;;4.82;1.27;;;;;;;;;;5043643;28;20045;-69
2023/09/21 17:36:08;;;;;;;3.22;1.35;;;;;;;;;;5035458;28;20531;-69
2023/09/21 17:39:49;;;;;;;4.72;1.33;;;;;;;;;;5043648;28;20098;-72
2023/09/21 17:43:29;;;;;;;2.60;1.27;;;;;;;;;;5035563;28;20446;-72
2023/09/21 17:47:11;;;;;;;3.63;1.20;;;;;;;;;;5035608;28;20123;-73
2023/09/21 17:50:50;;;;;;;2.60;1.17;;;;;;;;;;5042921;28;20404;-69
2023/09/21 17:54:31;;;;;;;5.97;1.33;;;;;;;;;;5040350;28;20112;-72
2023/09/21 17:58:11;;;;;;;3.15;1.40;;;;;;;;;;5037750;28;20049;-71
2023/09/21 18:01:53;;;;;;;6.18;1.23;;;;;;;;;;5046273;28;20056;-72
2023/09/21 18:05:35;;;;;;;1.85;1.05;;;;;;;;;;5042825;28;20449;-69
2023/09/21 18:09:15;;;;;;;3.60;1.40;;;;;;;;;;5041943;28;20405;-70
2023/09/21 18:12:55;;;;;;;6.45;1.20;;;;;;;;;;5040400;28;20048;-72
2023/09/21 18:16:51;;;;;;;2.97;1.25;;;;;;;;;;5035963;28;20087;-71
2023/09/21 18:20:37;;;;;;;8.52;1.35;;;;;;;;;;5031220;28;20055;-69
2023/09/21 18:24:18;;;;;;;3.03;1.30;;;;;;;;;;5036733;28;20387;-69
2023/09/21 18:27:59;;;;;;;5.05;1.48;;;;;;;;;;5039309;28;20463;-69
2023/09/21 18:31:41;;;;;;;3.85;1.30;;;;;;;;;;5036829;28;20075;-74
2023/09/21 18:35:20;;;;;;;1.88;1.10;;;;;;;;;;5037780;28;20037;-71
2023/09/21 18:39:01;;;;;;;13.75;1.77;;;;;;;;;;5034749;28;20044;-72
2023/09/21 18:42:41;;;;;;;2.08;1.25;;;;;;;;;;5037504;28;20045;-70
2023/09/21 18:46:22;;;;;;;3.67;1.35;;;;;;;;;;5040165;28;20083;-71
2023/09/21 18:50:02;;;;;;;5.30;1.30;;;;;;;;;;5035653;28;20041;-71
2023/09/21 18:53:42;;;;;;;7.43;1.38;;;;;;;;;;5036820;28;21126;-72
2023/09/21 18:57:22;;;;;;;7.22;1.27;;;;;;;;;;5040010;28;20049;-73
2023/09/21 19:01:03;;;;;;;3.03;1.50;;;;;;;;;;5041681;28;20053;-73
2023/09/21 19:04:43;;;;;;;8.55;1.50;;;;;;;;;;5041901;28;20100;-72
2023/09/21 19:08:24;;;;;;;4.25;1.30;;;;;;;;;;5036648;28;20040;-72
2023/09/21 19:12:06;;;;;;;4.47;2.00;;;;;;;;;;5031405;28;20071;-72
2023/09/21 19:15:46;;;;;;;4.10;1.35;;;;;;;;;;5038990;28;20053;-72
2023/09/21 19:19:26;;;;;;;5.82;1.85;;;;;;;;;;5035666;28;20069;-72
2023/09/21 19:23:07;;;;;;;4.70;1.55;;;;;;;;;;5034733;28;20123;-72
2023/09/21 19:26:47;;;;;;;5.47;2.00;;;;;;;;;;5038037;28;20511;-72
2023/09/21 19:30:27;;;;;;;8.00;1.77;;;;;;;;;;5034771;28;20402;-70
2023/09/21 19:34:08;;;;;;;3.55;1.50;;;;;;;;;;5036420;28;20117;-69
2023/09/21 19:37:51;;;;;;;5.38;1.50;;;;;;;;;;5034517;28;20473;-70
2023/09/21 19:41:29;;;;;;;5.28;1.80;;;;;;;;;;5038801;28;20151;-70
2023/09/21 19:45:09;;;;;;;3.17;1.30;;;;;;;;;;5036467;28;20091;-69
2023/09/21 19:48:50;;;;;;;2.40;1.20;;;;;;;;;;5032514;28;20052;-70
2023/09/21 19:52:31;;;;;;;4.13;1.30;;;;;;;;;;5030414;28;20045;-70
2023/09/21 19:56:11;;;;;;;2.47;1.20;;;;;;;;;;5033425;28;20060;-71
2023/09/21 19:59:52;;;;;;;2.85;1.13;;;;;;;;;;5030118;28;20076;-69
2023/09/21 20:03:04;;;;;;;2.28;1.20;;;;;;;;;;5039581;28;20125;-71
2023/09/21 20:06:14;;;;;;;2.58;1.30;;;;;;;;;;5031622;28;22641;-72
2023/09/21 20:09:54;;;;;;;6.13;1.50;;;;;;;;;;5033592;28;20405;-69
2023/09/21 20:13:34;;;;;;;5.47;1.30;;;;;;;;;;5029606;28;20384;-69
2023/09/21 20:17:15;;;;;;;4.35;1.10;;;;;;;;;;5037652;28;20055;-73
2023/09/21 20:20:55;;;;;;;4.82;1.90;;;;;;;;;;5048929;28;20054;-70